createdAt,value
2019-03-26T00:00:29.012Z,4.50
2019-03-26T00:02:57.594Z,4.50
2019-03-26T00:05:26.052Z,4.40
2019-03-26T00:07:54.532Z,4.30
2019-03-26T00:10:22.990Z,4.20
2019-03-26T00:12:51.434Z,4.10
2019-03-26T00:15:19.958Z,4.00
2019-03-26T00:17:48.450Z,3.80
2019-03-26T00:20:16.865Z,3.80
2019-03-26T00:22:45.301Z,3.70
2019-03-26T00:25:13.747Z,3.60
2019-03-26T00:27:42.167Z,3.40
2019-03-26T00:30:11.071Z,3.30
2019-03-26T00:32:39.516Z,3.20
2019-03-26T00:35:08.131Z,3.20
2019-03-26T00:37:36.652Z,3.10
2019-03-26T00:40:06.904Z,3.00
2019-03-26T00:42:35.385Z,2.90
2019-03-26T00:45:04.837Z,2.80
2019-03-26T00:47:33.311Z,2.80
2019-03-26T00:50:01.718Z,2.70
2019-03-26T00:52:30.156Z,2.80
2019-03-26T00:54:58.618Z,2.70
2019-03-26T00:57:27.079Z,2.70
2019-03-26T00:59:55.495Z,2.80
2019-03-26T01:02:23.923Z,2.80
2019-03-26T01:04:52.518Z,2.80
2019-03-26T01:07:21.044Z,2.80
2019-03-26T01:10:10.381Z,2.80
2019-03-26T01:12:41.787Z,2.80
2019-03-26T01:15:10.312Z,2.90
2019-03-26T01:17:38.740Z,2.90
2019-03-26T01:20:07.358Z,3.00
2019-03-26T01:22:36.206Z,3.10
2019-03-26T01:25:05.777Z,3.10
2019-03-26T01:27:34.201Z,3.10
2019-03-26T01:30:02.690Z,3.10
2019-03-26T01:32:31.118Z,3.10
2019-03-26T01:34:59.531Z,3.10
2019-03-26T01:37:28.016Z,3.10
2019-03-26T01:39:56.435Z,3.10
2019-03-26T01:42:24.867Z,3.10
2019-03-26T01:44:53.338Z,3.10
2019-03-26T01:47:21.784Z,3.10
2019-03-26T01:49:50.205Z,3.00
2019-03-26T01:52:18.701Z,3.00
2019-03-26T01:54:47.158Z,2.90
2019-03-26T01:57:15.616Z,2.90
2019-03-26T01:59:44.599Z,2.80
2019-03-26T02:02:13.017Z,2.70
2019-03-26T02:04:41.524Z,2.60
2019-03-26T02:07:09.973Z,2.40
2019-03-26T02:09:38.476Z,2.40
2019-03-26T02:12:07.048Z,2.30
2019-03-26T02:14:35.512Z,2.20
2019-03-26T02:17:04.062Z,2.10
2019-03-26T02:19:32.556Z,2.10
2019-03-26T02:22:00.994Z,2.00
2019-03-26T02:24:29.433Z,1.90
2019-03-26T02:26:57.870Z,1.90
2019-03-26T02:29:26.292Z,1.90
2019-03-26T02:31:54.818Z,1.80
2019-03-26T02:34:23.339Z,1.80
2019-03-26T02:36:53.334Z,1.80
2019-03-26T02:39:21.779Z,1.70
2019-03-26T02:41:50.194Z,1.70
2019-03-26T02:44:18.642Z,1.60
2019-03-26T02:46:47.076Z,1.70
2019-03-26T02:49:15.495Z,1.60
2019-03-26T02:51:43.929Z,1.60
2019-03-26T02:54:12.465Z,1.60
2019-03-26T02:56:40.958Z,1.60
2019-03-26T02:59:09.375Z,1.50
2019-03-26T03:01:37.807Z,1.40
2019-03-26T03:04:06.290Z,1.40
2019-03-26T03:06:34.764Z,1.30
2019-03-26T03:09:04.939Z,1.30
2019-03-26T03:11:33.463Z,1.20
2019-03-26T03:14:01.927Z,1.20
2019-03-26T03:16:30.382Z,1.10
2019-03-26T03:18:58.799Z,1.10
2019-03-26T03:21:28.520Z,1.10
2019-03-26T03:23:57.012Z,1.10
2019-03-26T03:26:27.033Z,1.10
2019-03-26T03:28:55.569Z,1.10
2019-03-26T03:31:23.976Z,1.00
2019-03-26T03:33:52.424Z,1.00
2019-03-26T03:36:20.878Z,1.00
2019-03-26T03:38:49.323Z,0.90
2019-03-26T03:41:17.740Z,0.90
2019-03-26T03:43:46.243Z,0.80
2019-03-26T03:46:14.777Z,0.90
2019-03-26T03:48:45.049Z,0.90
2019-03-26T03:51:16.446Z,1.00
2019-03-26T03:53:44.995Z,1.00
2019-03-26T03:56:16.223Z,0.90
2019-03-26T03:58:47.576Z,0.90
2019-03-26T04:01:28.949Z,0.90
2019-03-26T04:03:57.370Z,0.80
2019-03-26T04:06:25.828Z,0.80
2019-03-26T04:08:54.306Z,0.80
2019-03-26T04:11:22.730Z,0.80
2019-03-26T04:13:51.205Z,0.80
2019-03-26T04:16:19.718Z,0.80
2019-03-26T04:18:48.171Z,0.70
2019-03-26T04:21:16.683Z,0.80
2019-03-26T04:23:45.143Z,0.80
2019-03-26T04:26:13.644Z,0.70
2019-03-26T04:28:42.058Z,0.80
2019-03-26T04:31:10.995Z,0.80
2019-03-26T04:33:39.487Z,0.70
2019-03-26T04:36:24.239Z,0.60
2019-03-26T04:38:38.079Z,0.70
2019-03-26T04:41:06.511Z,0.60
2019-03-26T04:43:34.939Z,0.50
2019-03-26T04:46:03.371Z,0.50
2019-03-26T04:48:31.821Z,0.50
2019-03-26T04:51:00.323Z,0.40
2019-03-26T04:53:28.767Z,0.40
2019-03-26T04:55:57.192Z,0.40
2019-03-26T04:58:25.639Z,0.50
2019-03-26T05:00:54.142Z,0.50
2019-03-26T05:03:22.558Z,0.40
2019-03-26T05:05:51.031Z,0.40
2019-03-26T05:08:19.469Z,0.40
2019-03-26T05:10:49.261Z,0.40
2019-03-26T05:13:17.830Z,0.40
2019-03-26T05:15:46.319Z,0.40
2019-03-26T05:18:14.811Z,0.50
2019-03-26T05:20:43.255Z,0.60
2019-03-26T05:23:11.685Z,0.50
2019-03-26T05:25:40.102Z,0.50
2019-03-26T05:28:08.577Z,0.60
2019-03-26T05:30:37.079Z,0.60
2019-03-26T05:33:05.507Z,0.60
2019-03-26T05:35:34.029Z,0.60
2019-03-26T05:38:02.460Z,0.70
2019-03-26T05:40:31.726Z,0.70
2019-03-26T05:43:00.175Z,0.70
2019-03-26T05:45:28.604Z,0.80
2019-03-26T05:48:03.655Z,0.80
2019-03-26T05:50:32.133Z,0.80
2019-03-26T05:53:01.571Z,0.90
2019-03-26T05:55:30.030Z,0.90
2019-03-26T05:57:58.454Z,1.00
2019-03-26T06:00:27.284Z,1.10
2019-03-26T06:02:55.962Z,1.20
2019-03-26T06:05:24.479Z,1.20
2019-03-26T06:07:52.946Z,1.30
2019-03-26T06:10:21.468Z,1.40
2019-03-26T06:12:50.398Z,1.50
2019-03-26T06:15:18.945Z,1.50
2019-03-26T06:17:47.503Z,1.60
2019-03-26T06:20:17.050Z,1.70
2019-03-26T06:22:45.488Z,1.80
2019-03-26T06:25:14.297Z,1.90
2019-03-26T06:27:42.759Z,2.20
2019-03-26T06:30:11.456Z,2.60
2019-03-26T06:32:39.939Z,3.00
2019-03-26T06:35:09.604Z,3.60
2019-03-26T06:37:38.156Z,4.20
2019-03-26T06:40:08.334Z,4.70
2019-03-26T06:42:36.865Z,4.90
2019-03-26T06:45:11.756Z,5.30
2019-03-26T06:47:40.156Z,5.80
2019-03-26T06:50:12.065Z,6.10
2019-03-26T06:52:40.518Z,5.70
2019-03-26T06:55:10.682Z,5.40
2019-03-26T06:57:39.412Z,5.10
2019-03-26T07:00:09.972Z,5.30
2019-03-26T07:02:50.722Z,5.60
2019-03-26T07:05:19.136Z,6.20
2019-03-26T07:07:47.608Z,6.90
2019-03-26T07:10:35.558Z,7.00
2019-03-26T07:13:03.960Z,8.10
2019-03-26T07:15:32.429Z,8.50
2019-03-26T07:18:00.874Z,9.40
2019-03-26T07:20:29.294Z,10.50
2019-03-26T07:22:57.968Z,10.60
2019-03-26T07:25:26.483Z,11.50
2019-03-26T07:27:54.891Z,11.30
2019-03-26T07:30:45.636Z,10.60
2019-03-26T07:33:14.103Z,9.50
2019-03-26T07:35:42.715Z,8.80
2019-03-26T07:38:11.223Z,7.70
2019-03-26T07:40:39.670Z,6.80
2019-03-26T07:43:08.301Z,6.90
2019-03-26T07:45:36.818Z,7.00
2019-03-26T07:48:05.307Z,7.30
2019-03-26T07:50:33.790Z,7.40
2019-03-26T07:53:02.327Z,7.30
2019-03-26T07:55:30.842Z,7.20
2019-03-26T07:57:59.276Z,6.90
2019-03-26T08:00:36.130Z,7.00
2019-03-26T08:03:05.104Z,7.00
2019-03-26T08:05:33.787Z,6.80
2019-03-26T08:08:02.314Z,7.00
2019-03-26T08:10:30.806Z,7.30
2019-03-26T08:12:59.288Z,7.00
2019-03-26T08:15:27.836Z,7.70
2019-03-26T08:17:56.360Z,7.30
2019-03-26T08:20:24.822Z,7.00
2019-03-26T08:23:02.215Z,6.50
2019-03-26T08:25:33.931Z,6.60
2019-03-26T08:28:05.132Z,7.40
2019-03-26T08:30:32.794Z,7.20
2019-03-26T08:33:01.388Z,6.80
2019-03-26T08:35:30.667Z,6.70
2019-03-26T08:38:11.832Z,6.90
2019-03-26T08:40:29.292Z,7.10
2019-03-26T08:42:57.914Z,7.30
2019-03-26T08:45:26.384Z,7.10
2019-03-26T08:47:54.955Z,6.90
2019-03-26T08:50:23.351Z,7.10
2019-03-26T08:52:51.943Z,7.10
2019-03-26T08:55:20.392Z,7.50
2019-03-26T08:57:48.919Z,8.00
2019-03-26T09:00:18.699Z,8.10
2019-03-26T09:02:47.168Z,7.80
2019-03-26T09:05:15.680Z,7.60
2019-03-26T09:07:45.681Z,7.50
2019-03-26T09:10:14.569Z,7.80
2019-03-26T09:12:43.018Z,7.90
2019-03-26T09:15:14.911Z,7.80
2019-03-26T09:17:51.703Z,7.70
2019-03-26T09:20:23.209Z,7.80
2019-03-26T09:22:51.672Z,7.60
2019-03-26T09:25:20.288Z,7.40
2019-03-26T09:27:48.746Z,7.20
2019-03-26T09:30:17.756Z,7.10
2019-03-26T09:32:48.011Z,7.00
2019-03-26T09:35:16.691Z,6.90
2019-03-26T09:37:45.106Z,6.90
2019-03-26T09:40:13.812Z,7.00
2019-03-26T09:42:42.311Z,7.10
2019-03-26T09:45:15.290Z,7.20
2019-03-26T09:47:42.989Z,7.20
2019-03-26T09:50:15.697Z,7.20
2019-03-26T09:52:44.152Z,7.30
2019-03-26T09:55:12.864Z,7.40
2019-03-26T09:57:41.263Z,7.30
2019-03-26T10:00:11.581Z,7.50
2019-03-26T10:02:42.829Z,7.40
2019-03-26T10:05:10.437Z,7.50
2019-03-26T10:07:39.099Z,7.60
2019-03-26T10:10:09.751Z,7.50
2019-03-26T10:12:38.246Z,7.60
2019-03-26T10:15:07.160Z,7.60
2019-03-26T10:17:35.979Z,7.70
2019-03-26T10:20:06.816Z,7.60
2019-03-26T10:22:38.108Z,7.50
2019-03-26T10:25:10.958Z,7.50
2019-03-26T10:27:38.457Z,7.50
2019-03-26T10:30:09.722Z,7.50
2019-03-26T10:32:38.733Z,7.60
2019-03-26T10:35:07.518Z,7.40
2019-03-26T10:37:36.109Z,7.30
2019-03-26T10:40:08.811Z,7.20
2019-03-26T10:42:37.245Z,7.10
2019-03-26T10:45:07.440Z,7.10
2019-03-26T10:47:35.855Z,7.10
2019-03-26T10:50:06.170Z,7.00
2019-03-26T10:52:34.697Z,7.20
2019-03-26T10:55:03.826Z,7.10
2019-03-26T10:57:32.366Z,7.20
2019-03-26T11:00:00.815Z,7.20
2019-03-26T11:02:29.259Z,7.30
2019-03-26T11:04:57.698Z,7.20
2019-03-26T11:07:26.119Z,7.50
2019-03-26T11:09:54.799Z,7.50
2019-03-26T11:12:23.289Z,7.50
2019-03-26T11:14:51.758Z,7.50
2019-03-26T11:17:20.648Z,7.70
2019-03-26T11:19:49.179Z,7.80
2019-03-26T11:22:17.795Z,7.70
2019-03-26T11:24:46.241Z,7.70
2019-03-26T11:27:14.796Z,7.70
2019-03-26T11:29:43.208Z,7.80
2019-03-26T11:32:11.714Z,7.80
2019-03-26T11:34:40.359Z,7.70
2019-03-26T11:37:08.843Z,7.60
2019-03-26T11:39:37.391Z,7.70
2019-03-26T11:42:05.909Z,7.70
2019-03-26T11:44:34.363Z,7.60
2019-03-26T11:47:03.384Z,7.60
2019-03-26T11:49:31.925Z,7.80
2019-03-26T11:52:00.364Z,7.70
2019-03-26T11:54:28.779Z,7.80
2019-03-26T11:56:57.437Z,7.90
2019-03-26T11:59:25.901Z,8.10
2019-03-26T12:01:54.422Z,8.00
2019-03-26T12:04:22.842Z,8.00
2019-03-26T12:06:53.447Z,8.10
2019-03-26T12:09:23.342Z,8.20
2019-03-26T12:11:51.796Z,8.10
2019-03-26T12:14:20.247Z,8.20
2019-03-26T12:16:48.742Z,8.20
2019-03-26T12:19:17.270Z,8.30
2019-03-26T12:21:45.749Z,8.30
2019-03-26T12:24:14.205Z,8.60
2019-03-26T12:26:42.735Z,8.40
2019-03-26T12:29:11.143Z,8.30
2019-03-26T12:31:39.623Z,8.20
2019-03-26T12:34:13.919Z,8.40
2019-03-26T12:36:42.387Z,8.40
2019-03-26T12:39:10.879Z,8.50
2019-03-26T12:41:42.121Z,8.60
2019-03-26T12:44:10.588Z,8.70
2019-03-26T12:46:39.144Z,8.60
2019-03-26T12:49:07.657Z,9.00
2019-03-26T12:51:39.146Z,8.80
2019-03-26T12:54:06.690Z,8.50
2019-03-26T12:56:35.167Z,8.50
2019-03-26T12:59:03.873Z,8.40
2019-03-26T13:01:32.732Z,8.60
2019-03-26T13:04:11.877Z,8.50
2019-03-26T13:06:31.386Z,8.40
2019-03-26T13:09:00.028Z,8.30
2019-03-26T13:11:28.611Z,8.50
2019-03-26T13:13:57.124Z,8.40
2019-03-26T13:16:27.499Z,8.30
2019-03-26T13:18:55.938Z,8.20
2019-03-26T13:21:24.451Z,8.10
2019-03-26T13:23:53.008Z,8.30
2019-03-26T13:26:21.453Z,8.50
2019-03-26T13:28:49.882Z,8.70
2019-03-26T13:31:18.316Z,8.90
2019-03-26T13:33:46.748Z,9.10
2019-03-26T13:36:15.177Z,9.00
2019-03-26T13:38:43.630Z,9.00
2019-03-26T13:41:12.115Z,9.00
2019-03-26T13:43:40.530Z,9.00
2019-03-26T13:46:09.050Z,9.10
2019-03-26T13:48:37.570Z,9.00
2019-03-26T13:51:06.164Z,8.90
2019-03-26T13:53:34.585Z,8.90
2019-03-26T13:56:03.223Z,9.20
2019-03-26T13:58:31.680Z,9.10
2019-03-26T14:01:00.204Z,9.00
2019-03-26T14:03:28.647Z,8.90
2019-03-26T14:05:57.105Z,8.70
2019-03-26T14:08:25.565Z,8.80
2019-03-26T14:10:53.995Z,8.80
2019-03-26T14:13:22.596Z,8.70
2019-03-26T14:15:51.020Z,8.50
2019-03-26T14:18:19.537Z,8.40
2019-03-26T14:20:47.968Z,8.40
2019-03-26T14:23:16.461Z,8.50
2019-03-26T14:25:45.094Z,8.50
2019-03-26T14:28:13.658Z,8.50
2019-03-26T14:30:43.325Z,8.50
2019-03-26T14:33:11.962Z,8.70
2019-03-26T14:35:40.471Z,8.70
2019-03-26T14:38:08.983Z,8.60
2019-03-26T14:40:37.701Z,8.70
2019-03-26T14:43:06.567Z,8.70
2019-03-26T14:45:37.292Z,9.00
2019-03-26T14:48:05.987Z,9.20
2019-03-26T14:50:34.679Z,9.10
2019-03-26T14:53:03.667Z,9.20
2019-03-26T14:55:32.211Z,9.20
2019-03-26T14:58:00.729Z,9.20
2019-03-26T15:00:30.440Z,9.70
2019-03-26T15:02:58.970Z,9.60
2019-03-26T15:05:27.557Z,9.40
2019-03-26T15:07:56.213Z,9.40
2019-03-26T15:10:24.869Z,9.40
2019-03-26T15:12:54.619Z,9.30
2019-03-26T15:15:23.070Z,9.20
2019-03-26T15:17:51.600Z,9.30
2019-03-26T15:20:20.110Z,9.30
2019-03-26T15:22:48.921Z,9.20
2019-03-26T15:25:17.333Z,9.20
2019-03-26T15:27:46.023Z,9.20
2019-03-26T15:30:17.061Z,9.10
2019-03-26T15:32:45.398Z,9.10
2019-03-26T15:35:14.219Z,9.10
2019-03-26T15:37:42.981Z,9.00
2019-03-26T15:40:11.672Z,9.00
2019-03-26T15:42:40.235Z,9.00
2019-03-26T15:45:10.806Z,8.90
2019-03-26T15:47:39.415Z,8.80
2019-03-26T15:50:09.318Z,8.80
2019-03-26T15:52:42.284Z,8.80
2019-03-26T15:55:10.669Z,8.70
2019-03-26T15:57:39.200Z,8.70
2019-03-26T16:00:09.774Z,8.70
2019-03-26T16:02:38.289Z,8.70
2019-03-26T16:05:07.711Z,8.60
2019-03-26T16:07:36.207Z,8.60
2019-03-26T16:10:06.922Z,8.70
2019-03-26T16:12:41.081Z,8.70
2019-03-26T16:15:07.649Z,8.70
2019-03-26T16:17:38.691Z,8.80
2019-03-26T16:20:07.537Z,8.70
2019-03-26T16:22:36.068Z,8.80
2019-03-26T16:25:05.597Z,8.90
2019-03-26T16:27:34.332Z,8.90
2019-03-26T16:30:03.464Z,9.00
2019-03-26T16:32:31.932Z,9.10
2019-03-26T16:35:00.474Z,8.90
2019-03-26T16:37:28.886Z,8.80
2019-03-26T16:39:57.820Z,8.70
2019-03-26T16:42:26.325Z,8.70
2019-03-26T16:44:54.972Z,8.80
2019-03-26T16:47:23.495Z,9.00
2019-03-26T16:49:52.010Z,9.00
2019-03-26T16:52:20.718Z,8.90
2019-03-26T16:54:49.314Z,8.70
2019-03-26T16:57:17.839Z,8.70
2019-03-26T16:59:46.333Z,8.60
2019-03-26T17:02:14.911Z,8.50
2019-03-26T17:04:46.597Z,8.50
2019-03-26T17:07:13.545Z,8.40
2019-03-26T17:09:42.550Z,8.40
2019-03-26T17:12:11.017Z,8.40
2019-03-26T17:14:39.592Z,8.40
2019-03-26T17:17:08.096Z,8.30
2019-03-26T17:19:36.580Z,8.30
2019-03-26T17:22:05.307Z,8.30
2019-03-26T17:24:33.789Z,8.30
2019-03-26T17:27:02.424Z,8.30
2019-03-26T17:29:30.920Z,8.20
2019-03-26T17:32:01.185Z,8.20
2019-03-26T17:34:29.904Z,8.20
2019-03-26T17:36:58.738Z,8.10
2019-03-26T17:39:27.285Z,8.10
2019-03-26T17:41:55.738Z,8.10
2019-03-26T17:44:24.156Z,8.10
2019-03-26T17:46:54.405Z,8.00
2019-03-26T17:49:23.423Z,8.00
2019-03-26T17:51:51.960Z,8.00
2019-03-26T17:54:20.430Z,8.00
2019-03-26T17:56:49.086Z,8.00
2019-03-26T17:59:17.623Z,8.00
2019-03-26T18:01:46.427Z,7.90
2019-03-26T18:04:16.138Z,7.90
2019-03-26T18:06:44.622Z,7.90
2019-03-26T18:09:13.090Z,7.90
2019-03-26T18:11:48.659Z,7.90
2019-03-26T18:14:17.197Z,7.90
2019-03-26T18:16:45.742Z,7.80
2019-03-26T18:19:14.965Z,7.80
2019-03-26T18:21:51.437Z,7.70
2019-03-26T18:24:13.795Z,7.70
2019-03-26T18:26:42.476Z,7.50
2019-03-26T18:29:10.938Z,7.50
2019-03-26T18:31:39.436Z,7.40
2019-03-26T18:34:09.941Z,7.40
2019-03-26T18:36:38.638Z,7.40
2019-03-26T18:39:08.149Z,7.30
2019-03-26T18:41:38.118Z,7.20
2019-03-26T18:44:06.834Z,7.10
2019-03-26T18:46:35.354Z,7.10
2019-03-26T18:49:04.016Z,7.10
2019-03-26T18:51:32.646Z,7.00
2019-03-26T18:54:01.154Z,6.90
2019-03-26T18:56:37.556Z,6.80
2019-03-26T18:59:06.209Z,6.70
2019-03-26T19:01:34.749Z,6.80
2019-03-26T19:04:03.315Z,6.80
2019-03-26T19:06:31.870Z,6.90
2019-03-26T19:09:00.446Z,6.80
2019-03-26T19:11:29.042Z,6.80
2019-03-26T19:13:57.789Z,6.60
2019-03-26T19:16:26.280Z,6.40
2019-03-26T19:18:54.767Z,6.30
2019-03-26T19:21:23.935Z,6.10
2019-03-26T19:24:03.517Z,6.00
2019-03-26T19:26:23.244Z,5.90
2019-03-26T19:28:51.811Z,5.80
2019-03-26T19:31:20.520Z,5.70
2019-03-26T19:33:49.363Z,5.70
2019-03-26T19:36:17.841Z,5.60
2019-03-26T19:38:47.324Z,5.50
2019-03-26T19:41:15.924Z,5.40
2019-03-26T19:43:44.466Z,5.30
2019-03-26T19:46:12.912Z,5.20
2019-03-26T19:48:41.893Z,5.20
2019-03-26T19:51:10.656Z,5.20
2019-03-26T19:53:39.269Z,5.20
2019-03-26T19:56:08.498Z,5.30
2019-03-26T19:58:37.265Z,5.30
2019-03-26T20:01:05.852Z,5.40
2019-03-26T20:03:34.369Z,5.40
2019-03-26T20:06:12.814Z,5.50
2019-03-26T20:08:33.374Z,5.50
2019-03-26T20:11:01.828Z,5.60
2019-03-26T20:13:30.290Z,5.70
2019-03-26T20:15:58.937Z,5.60
2019-03-26T20:18:27.385Z,5.70
2019-03-26T20:20:55.961Z,5.60
2019-03-26T20:23:24.571Z,5.60
2019-03-26T20:25:53.052Z,5.60
2019-03-26T20:28:21.656Z,5.60
2019-03-26T20:30:50.238Z,5.50
2019-03-26T20:33:18.834Z,5.40
2019-03-26T20:35:47.324Z,5.30
2019-03-26T20:38:15.789Z,5.30
2019-03-26T20:40:44.310Z,5.20
2019-03-26T20:43:12.882Z,5.10
2019-03-26T20:45:41.523Z,5.00
2019-03-26T20:48:09.982Z,4.90
2019-03-26T20:50:38.487Z,4.90
2019-03-26T20:53:07.022Z,4.80
2019-03-26T20:55:36.225Z,4.70
2019-03-26T20:58:04.845Z,4.70
2019-03-26T21:00:42.945Z,4.70
2019-03-26T21:03:11.474Z,4.60
2019-03-26T21:05:40.248Z,4.60
2019-03-26T21:08:08.731Z,4.60
2019-03-26T21:10:37.251Z,4.60
2019-03-26T21:13:05.818Z,4.60
2019-03-26T21:15:34.315Z,4.60
2019-03-26T21:18:02.844Z,4.60
2019-03-26T21:20:31.332Z,4.70
2019-03-26T21:22:59.849Z,4.70
2019-03-26T21:25:28.281Z,4.80
2019-03-26T21:27:56.890Z,4.90
2019-03-26T21:30:25.523Z,5.00
2019-03-26T21:32:54.103Z,5.00
2019-03-26T21:35:22.643Z,5.00
2019-03-26T21:37:51.176Z,5.00
2019-03-26T21:40:19.987Z,5.10
2019-03-26T21:42:48.565Z,5.10
2019-03-26T21:45:19.058Z,5.20
2019-03-26T21:47:47.631Z,5.20
2019-03-26T21:50:16.617Z,5.20
2019-03-26T21:52:45.188Z,5.20
2019-03-26T21:55:13.827Z,5.20
2019-03-26T21:57:42.412Z,5.20
2019-03-26T22:00:11.589Z,5.20
2019-03-26T22:02:40.204Z,5.20
2019-03-26T22:05:09.485Z,5.30
2019-03-26T22:07:38.144Z,5.30
2019-03-26T22:10:10.146Z,5.30
2019-03-26T22:12:38.630Z,5.30
2019-03-26T22:15:10.962Z,5.20
2019-03-26T22:17:39.447Z,5.20
2019-03-26T22:20:08.363Z,5.20
2019-03-26T22:22:36.867Z,5.30
2019-03-26T22:25:09.971Z,5.30
2019-03-26T22:27:38.608Z,5.30
2019-03-26T22:30:09.386Z,5.30
2019-03-26T22:32:37.913Z,5.30
2019-03-26T22:35:27.213Z,5.30
2019-03-26T22:37:55.666Z,5.30
2019-03-26T22:40:24.216Z,5.30
2019-03-26T22:42:52.711Z,5.30
2019-03-26T22:45:21.166Z,5.20
2019-03-26T22:47:49.753Z,5.20
2019-03-26T22:50:18.238Z,5.20
2019-03-26T22:52:46.709Z,5.20
2019-03-26T22:55:15.584Z,5.20
2019-03-26T22:57:44.155Z,5.20
2019-03-26T23:00:15.769Z,5.30
2019-03-26T23:02:44.287Z,5.30
2019-03-26T23:05:13.634Z,5.40
2019-03-26T23:07:42.143Z,5.40
2019-03-26T23:10:11.244Z,5.30
2019-03-26T23:12:40.022Z,5.30
2019-03-26T23:15:23.362Z,5.30
2019-03-26T23:17:52.014Z,5.30
2019-03-26T23:20:20.569Z,5.30
2019-03-26T23:22:49.293Z,5.30
2019-03-26T23:25:17.813Z,5.20
2019-03-26T23:27:46.315Z,5.20
2019-03-26T23:30:15.519Z,5.30
2019-03-26T23:32:43.950Z,5.30
2019-03-26T23:35:13.321Z,5.30
2019-03-26T23:37:41.804Z,5.30
2019-03-26T23:40:11.364Z,5.30
2019-03-26T23:42:39.873Z,5.20
2019-03-26T23:45:09.024Z,5.20
2019-03-26T23:47:37.479Z,5.20
2019-03-26T23:50:09.847Z,5.10
2019-03-26T23:52:38.354Z,5.10
2019-03-26T23:55:07.960Z,5.10
2019-03-26T23:57:37.515Z,5.10
